Time;durP1;ratioP1;P1;durP2;ratioP2;P2;SDS_P1;SDS_P2;PMS_P1;PMS_P2;Temp;Humidity;BMP_temperature;BMP_pressure;BME280_temperature;BME280_humidity;BME280_pressure;Samples;Min_cycle;Max_cycle;Signal;HPM_P1;HPM_P2
2022/01/07 00:01:25;;;;;;;9.63;5.27;;;;;;;4.23;100.00;101360.16;5192952;28;20030;-70
2022/01/07 00:03:56;;;;;;;13.63;5.53;;;;;;;4.28;100.00;101360.75;5210732;28;20346;-71
2022/01/07 00:06:27;;;;;;;11.43;5.85;;;;;;;4.26;100.00;101360.00;5208339;28;20430;-71
2022/01/07 00:08:59;;;;;;;14.95;5.13;;;;;;;4.29;100.00;101358.09;5210462;28;20080;-71
2022/01/07 00:11:30;;;;;;;10.98;5.20;;;;;;;4.26;100.00;101349.66;5210635;28;20030;-70
2022/01/07 00:14:02;;;;;;;11.90;4.93;;;;;;;4.21;100.00;101354.22;5209962;28;20026;-71
2022/01/07 00:16:33;;;;;;;14.02;4.63;;;;;;;4.20;100.00;101348.19;5203958;28;20033;-71
2022/01/07 00:19:04;;;;;;;10.43;4.82;;;;;;;4.25;100.00;101343.63;5210903;28;20497;-71
2022/01/07 00:21:36;;;;;;;12.35;5.45;;;;;;;4.20;100.00;101336.97;5210436;28;20033;-71
2022/01/07 00:24:07;;;;;;;7.78;4.35;;;;;;;4.22;100.00;101329.97;5210353;28;20040;-71
2022/01/07 00:26:38;;;;;;;11.57;5.15;;;;;;;4.13;100.00;101324.34;5208575;28;20473;-71
2022/01/07 00:29:10;;;;;;;8.88;4.18;;;;;;;4.05;100.00;101330.78;5210771;28;20049;-70
2022/01/07 00:31:41;;;;;;;9.35;4.72;;;;;;;4.10;100.00;101321.88;5192099;28;20034;-71
2022/01/07 00:34:12;;;;;;;10.43;5.32;;;;;;;4.15;100.00;101321.66;5210437;28;20064;-70
2022/01/07 00:36:43;;;;;;;11.20;4.53;;;;;;;4.14;100.00;101314.78;5211147;28;20450;-71
2022/01/07 00:39:15;;;;;;;11.65;4.90;;;;;;;4.05;100.00;101305.72;5212535;28;20033;-71
2022/01/07 00:41:46;;;;;;;11.40;4.68;;;;;;;4.08;100.00;101310.75;5215113;28;20693;-71
2022/01/07 00:44:17;;;;;;;13.35;5.00;;;;;;;4.05;100.00;101297.97;5214469;28;20414;-71
2022/01/07 00:46:48;;;;;;;15.50;4.93;;;;;;;4.06;100.00;101283.22;5215063;28;20045;-71
2022/01/07 00:49:22;;;;;;;9.77;4.28;;;;;;;3.96;100.00;101282.00;5214689;28;20026;-71
2022/01/07 00:51:53;;;;;;;10.70;5.13;;;;;;;4.06;100.00;101278.03;5213377;28;20034;-71
2022/01/07 00:54:25;;;;;;;12.32;5.10;;;;;;;4.00;100.00;101275.75;5212759;28;20516;-71
2022/01/07 00:56:57;;;;;;;13.15;5.10;;;;;;;4.00;100.00;101275.75;5213404;28;20048;-70
2022/01/07 00:59:28;;;;;;;9.35;4.35;;;;;;;4.01;100.00;101269.63;5214774;28;20467;-69
2022/01/07 01:01:59;;;;;;;10.40;4.32;;;;;;;4.03;100.00;101266.06;5213717;28;20018;-70
2022/01/07 01:04:31;;;;;;;15.00;4.40;;;;;;;4.03;100.00;101255.69;5213864;28;20156;-69
2022/01/07 01:07:03;;;;;;;12.15;3.83;;;;;;;4.01;100.00;101252.34;5214259;28;20457;-70
2022/01/07 01:09:34;;;;;;;9.50;4.60;;;;;;;4.00;100.00;101255.84;5214558;28;20121;-70
2022/01/07 01:12:06;;;;;;;12.18;4.50;;;;;;;4.05;100.00;101248.69;5213513;28;20056;-70
2022/01/07 01:14:38;;;;;;;10.93;4.10;;;;;;;4.07;100.00;101239.06;5214767;28;20112;-70
2022/01/07 01:17:09;;;;;;;12.65;4.43;;;;;;;4.06;100.00;101252.97;5213950;28;20022;-69
2022/01/07 01:19:41;;;;;;;9.73;3.92;;;;;;;4.10;100.00;101241.50;5213733;28;20032;-70
2022/01/07 01:22:12;;;;;;;14.63;4.75;;;;;;;4.10;100.00;101238.91;5214069;28;20471;-70
2022/01/07 01:24:43;;;;;;;13.13;4.05;;;;;;;4.09;100.00;101236.38;5196100;28;20025;-70
2022/01/07 01:27:15;;;;;;;8.07;3.38;;;;;;;4.13;100.00;101227.56;5212903;28;20030;-70
2022/01/07 01:29:46;;;;;;;11.40;3.83;;;;;;;4.14;100.00;101221.44;5213070;28;20028;-70
2022/01/07 01:32:17;;;;;;;9.50;3.90;;;;;;;4.15;100.00;101221.34;5213569;28;20030;-70
2022/01/07 01:34:49;;;;;;;14.30;4.38;;;;;;;4.11;100.00;101212.06;5213436;28;20458;-70
2022/01/07 01:37:20;;;;;;;11.52;4.32;;;;;;;4.14;100.00;101214.50;5213526;28;20028;-70
2022/01/07 01:39:51;;;;;;;13.43;4.13;;;;;;;4.02;100.00;101207.38;5213479;28;20112;-70
2022/01/07 01:42:23;;;;;;;7.97;3.53;;;;;;;4.16;100.00;101211.81;5210564;28;20205;-71
2022/01/07 01:44:54;;;;;;;7.38;3.38;;;;;;;4.15;100.00;101207.56;5213862;28;20061;-71
2022/01/07 01:47:25;;;;;;;11.35;4.35;;;;;;;4.12;100.00;101186.97;5193804;28;20061;-70
2022/01/07 01:49:56;;;;;;;7.25;3.28;;;;;;;4.14;100.00;101188.56;5214390;28;20033;-70
2022/01/07 01:52:28;;;;;;;13.00;3.55;;;;;;;4.20;100.00;101189.16;5212144;28;20038;-70
2022/01/07 01:54:59;;;;;;;6.40;3.25;;;;;;;4.07;100.00;101174.25;5212880;28;20026;-71
2022/01/07 01:57:31;;;;;;;7.00;3.40;;;;;;;4.14;100.00;101178.19;5213674;28;20495;-71
2022/01/07 02:00:05;;;;;;;12.15;3.60;;;;;;;4.23;100.00;101173.44;5212111;28;20018;-71
2022/01/07 02:02:37;;;;;;;9.77;3.00;;;;;;;4.24;100.00;101167.31;5210841;28;20025;-71
2022/01/07 02:05:09;;;;;;;6.53;2.90;;;;;;;4.27;100.00;101172.34;5213147;28;20041;-71
2022/01/07 02:07:41;;;;;;;9.13;3.17;;;;;;;4.28;100.00;101174.88;5211739;28;20087;-71
2022/01/07 02:10:15;;;;;;;10.30;3.33;;;;;;;4.26;100.00;101165.50;5212977;28;20037;-71
2022/01/07 02:12:47;;;;;;;9.00;2.88;;;;;;;4.27;100.00;101164.56;5213974;28;20026;-71
2022/01/07 02:15:18;;;;;;;8.15;2.90;;;;;;;4.23;100.00;101170.84;5213396;28;20678;-71
2022/01/07 02:17:53;;;;;;;9.00;3.00;;;;;;;4.12;100.00;101167.06;5212859;28;20060;-71
2022/01/07 02:20:28;;;;;;;7.10;3.40;;;;;;;4.05;100.00;101168.31;5213040;28;20028;-71
2022/01/07 02:23:00;;;;;;;10.45;3.28;;;;;;;4.03;100.00;101170.16;5212015;28;20091;-70
2022/01/07 02:25:32;;;;;;;9.13;2.60;;;;;;;3.93;100.00;101168.94;5213296;28;20033;-70
2022/01/07 02:28:04;;;;;;;8.85;2.85;;;;;;;3.86;100.00;101159.81;5212814;28;20056;-70
2022/01/07 02:30:35;;;;;;;6.20;2.85;;;;;;;3.88;100.00;101153.63;5211294;28;20034;-70
2022/01/07 02:33:06;;;;;;;11.98;2.50;;;;;;;3.89;100.00;101154.47;5211833;28;20116;-70
2022/01/07 02:35:41;;;;;;;7.55;2.80;;;;;;;3.87;100.00;101148.53;5212232;28;20026;-70
2022/01/07 02:38:15;;;;;;;6.80;2.42;;;;;;;3.85;100.00;101156.38;5210139;28;20026;-70
2022/01/07 02:40:46;;;;;;;7.97;2.85;;;;;;;3.74;100.00;101140.53;5209898;28;20028;-70
2022/01/07 02:43:18;;;;;;;9.88;3.10;;;;;;;3.70;100.00;101146.78;5213058;28;20022;-70
2022/01/07 02:45:49;;;;;;;10.50;3.65;;;;;;;3.70;100.00;101140.78;5212211;28;20036;-70
2022/01/07 02:48:20;;;;;;;6.88;3.00;;;;;;;3.71;100.00;101145.03;5213034;28;20018;-70
2022/01/07 02:50:52;;;;;;;11.00;3.38;;;;;;;3.69;100.00;101139.13;5211497;28;20113;-71
2022/01/07 02:53:23;;;;;;;10.25;3.47;;;;;;;3.66;100.00;101140.09;5212017;28;20493;-71
2022/01/07 02:55:54;;;;;;;7.28;2.85;;;;;;;3.60;100.00;101137.84;5212899;28;20049;-71
2022/01/07 02:58:26;;;;;;;10.48;4.22;;;;;;;3.74;100.00;101126.75;5212005;28;20033;-71
2022/01/07 03:00:57;;;;;;;12.65;4.25;;;;;;;3.81;100.00;101131.53;5193280;28;20018;-71
2022/01/07 03:03:28;;;;;;;7.75;3.33;;;;;;;3.80;100.00;101131.63;5211863;28;20169;-71
2022/01/07 03:06:00;;;;;;;6.18;2.78;;;;;;;3.81;100.00;101126.34;5192590;28;20068;-71
2022/01/07 03:08:31;;;;;;;13.40;4.20;;;;;;;3.79;100.00;101124.75;5209436;28;20022;-71
2022/01/07 03:11:02;;;;;;;9.23;3.13;;;;;;;3.72;100.00;101123.41;5210738;28;20526;-71
2022/01/07 03:13:34;;;;;;;9.07;3.53;;;;;;;3.65;100.00;101123.72;5211371;28;20387;-71
2022/01/07 03:16:05;;;;;;;7.97;3.40;;;;;;;3.60;100.00;101114.53;5211044;28;20022;-71
2022/01/07 03:18:38;;;;;;;8.85;3.00;;;;;;;3.58;100.00;101104.22;5210619;28;20037;-71
2022/01/07 03:21:09;;;;;;;6.15;2.92;;;;;;;3.62;100.00;101102.31;5210477;28;20026;-71
2022/01/07 03:23:42;;;;;;;11.25;3.50;;;;;;;3.55;100.00;101101.78;5210132;28;20026;-71
2022/01/07 03:26:13;;;;;;;10.80;3.53;;;;;;;3.55;100.00;101090.59;5210925;28;20022;-71
2022/01/07 03:28:46;;;;;;;9.77;4.00;;;;;;;3.51;100.00;101092.50;5212093;28;20100;-71
2022/01/07 03:31:17;;;;;;;8.73;3.20;;;;;;;3.59;100.00;101095.53;5211151;28;20037;-71
2022/01/07 03:33:48;;;;;;;8.30;3.38;;;;;;;3.55;100.00;101091.44;5208252;28;20030;-71
2022/01/07 03:36:19;;;;;;;9.20;3.85;;;;;;;3.48;100.00;101082.28;5210558;28;20362;-71
2022/01/07 03:38:51;;;;;;;9.00;3.70;;;;;;;3.44;100.00;101087.72;5211014;28;20359;-70
2022/01/07 03:41:23;;;;;;;8.60;3.20;;;;;;;3.47;100.00;101085.81;5209677;28;20064;-71
2022/01/07 03:43:54;;;;;;;11.27;3.78;;;;;;;3.42;100.00;101078.28;5193070;28;20478;-71
2022/01/07 03:46:25;;;;;;;10.35;3.70;;;;;;;3.51;100.00;101082.13;5211612;28;20089;-71
2022/01/07 03:48:57;;;;;;;11.43;3.90;;;;;;;3.48;100.00;101074.53;5212150;28;20113;-71
2022/01/07 03:51:28;;;;;;;10.63;3.78;;;;;;;3.46;100.00;101080.72;5210741;28;20038;-71
2022/01/07 03:53:59;;;;;;;5.93;2.92;;;;;;;3.54;100.00;101078.56;5211479;28;20026;-71
2022/01/07 03:56:33;;;;;;;7.80;3.75;;;;;;;3.52;100.00;101075.19;5210125;28;20033;-71
2022/01/07 03:59:04;;;;;;;9.07;3.38;;;;;;;3.48;100.00;101073.69;5194492;28;20475;-71
2022/01/07 04:01:36;;;;;;;10.45;4.70;;;;;;;3.45;100.00;101069.53;5211258;28;20021;-71
2022/01/07 04:04:07;;;;;;;10.48;3.78;;;;;;;3.47;100.00;101061.66;5210854;28;20022;-71
2022/01/07 04:06:38;;;;;;;8.05;3.75;;;;;;;3.50;100.00;101051.97;5193594;28;20100;-71
2022/01/07 04:09:10;;;;;;;9.45;3.65;;;;;;;3.53;100.00;101053.59;5211036;28;20026;-71
2022/01/07 04:11:41;;;;;;;7.43;3.33;;;;;;;3.50;100.00;101048.56;5211514;28;20030;-71
2022/01/07 04:14:12;;;;;;;8.85;3.78;;;;;;;3.54;100.00;101048.31;5212978;28;20057;-71
2022/01/07 04:16:43;;;;;;;5.97;3.22;;;;;;;3.56;100.00;101046.50;5213705;28;20125;-71
2022/01/07 04:19:15;;;;;;;6.75;3.63;;;;;;;3.55;100.00;101039.63;5214794;28;20025;-70
2022/01/07 04:21:47;;;;;;;7.30;3.40;;;;;;;3.54;100.00;101039.72;5213007;28;20037;-70
2022/01/07 04:24:19;;;;;;;6.63;3.88;;;;;;;3.53;100.00;101035.44;5214952;28;20079;-70
2022/01/07 04:26:50;;;;;;;6.43;3.20;;;;;;;3.55;100.00;101049.13;5214067;28;20482;-70
2022/01/07 04:29:21;;;;;;;6.68;3.28;;;;;;;3.59;100.00;101046.31;5214155;28;20065;-71
2022/01/07 04:31:53;;;;;;;5.57;3.90;;;;;;;3.60;100.00;101042.00;5214725;28;20113;-71
2022/01/07 04:34:24;;;;;;;9.90;3.92;;;;;;;3.59;100.00;101041.13;5214668;28;20438;-70
2022/01/07 04:36:55;;;;;;;8.13;3.85;;;;;;;3.66;100.00;101059.78;5215196;28;20108;-71
2022/01/07 04:39:26;;;;;;;6.65;3.63;;;;;;;3.70;100.00;101052.69;5214052;28;20061;-71
2022/01/07 04:41:59;;;;;;;7.32;4.05;;;;;;;3.69;100.00;101053.63;5215585;28;20010;-71
2022/01/07 04:44:31;;;;;;;5.88;3.85;;;;;;;3.73;100.00;101057.72;5213241;28;20491;-71
2022/01/07 04:47:04;;;;;;;6.55;3.90;;;;;;;3.76;100.00;101053.22;5215055;28;20050;-70
2022/01/07 04:49:36;;;;;;;8.15;4.13;;;;;;;3.77;100.00;101054.03;5213519;28;20156;-71
2022/01/07 04:52:07;;;;;;;6.30;4.00;;;;;;;3.78;100.00;101051.34;5213990;28;20034;-71
2022/01/07 04:54:38;;;;;;;8.05;4.38;;;;;;;3.83;100.00;101048.53;5215030;28;20094;-71
2022/01/07 04:57:10;;;;;;;7.35;4.35;;;;;;;3.85;100.00;101042.34;5213392;28;20026;-71
2022/01/07 04:59:41;;;;;;;9.35;4.32;;;;;;;3.89;100.00;101043.00;5209987;28;20018;-71
2022/01/07 05:02:12;;;;;;;7.97;3.85;;;;;;;3.88;100.00;101034.41;5213266;28;20021;-71
2022/01/07 05:04:44;;;;;;;5.97;4.38;;;;;;;3.87;100.00;101022.38;5214214;28;20022;-71
2022/01/07 05:07:16;;;;;;;8.27;4.50;;;;;;;3.81;100.00;101022.69;5213526;28;20026;-71
2022/01/07 05:09:47;;;;;;;8.85;4.45;;;;;;;3.87;100.00;101022.38;5214092;28;20037;-71
2022/01/07 05:12:18;;;;;;;7.38;4.45;;;;;;;3.88;100.00;101018.03;5213835;28;20057;-71
2022/01/07 05:14:49;;;;;;;7.28;4.95;;;;;;;3.92;100.00;101009.16;5213374;28;20026;-71
2022/01/07 05:17:21;;;;;;;9.02;5.05;;;;;;;3.90;100.00;101001.47;5213549;28;20629;-71
2022/01/07 05:19:52;;;;;;;9.75;5.80;;;;;;;3.94;100.00;101006.47;5215180;28;20557;-71
2022/01/07 05:22:23;;;;;;;7.40;4.35;;;;;;;3.92;100.00;101008.31;5213539;28;20112;-71
2022/01/07 05:24:55;;;;;;;8.43;5.25;;;;;;;3.96;100.00;101009.84;5214222;28;20477;-71
2022/01/07 05:27:26;;;;;;;10.15;5.90;;;;;;;4.00;100.00;101025.13;5213584;28;20390;-71
2022/01/07 05:29:58;;;;;;;9.43;5.53;;;;;;;3.98;100.00;101013.16;5214214;28;20470;-71
2022/01/07 05:32:29;;;;;;;11.20;5.28;;;;;;;4.06;100.00;101018.78;5212178;28;20033;-71
2022/01/07 05:35:00;;;;;;;7.43;5.30;;;;;;;4.07;100.00;101015.25;5214198;28;20379;-71
2022/01/07 05:37:32;;;;;;;8.35;5.60;;;;;;;4.09;100.00;101014.28;5212589;28;20037;-71
2022/01/07 05:40:04;;;;;;;9.80;5.93;;;;;;;4.12;100.00;101003.69;5213446;28;20479;-70
2022/01/07 05:42:36;;;;;;;11.15;5.25;;;;;;;4.13;100.00;100997.63;5212254;28;20092;-70
2022/01/07 05:45:07;;;;;;;8.90;5.43;;;;;;;4.15;100.00;101013.91;5212989;28;20391;-70
2022/01/07 05:47:39;;;;;;;10.10;6.50;;;;;;;4.09;100.00;101011.69;5211971;28;20104;-70
2022/01/07 05:50:10;;;;;;;8.25;6.47;;;;;;;4.20;100.00;101011.06;5213574;28;20399;-70
2022/01/07 05:52:42;;;;;;;8.75;5.40;;;;;;;4.20;100.00;101005.03;5194927;28;20051;-71
2022/01/07 05:55:13;;;;;;;10.48;7.47;;;;;;;4.20;100.00;100999.84;5213801;28;20108;-71
2022/01/07 05:57:44;;;;;;;8.48;6.10;;;;;;;4.18;100.00;100994.75;5211941;28;20375;-71
2022/01/07 06:00:18;;;;;;;9.15;5.97;;;;;;;4.23;100.00;100997.09;5213431;28;20105;-71
2022/01/07 06:02:49;;;;;;;9.07;6.43;;;;;;;4.24;100.00;100991.81;5212926;28;20120;-71
2022/01/07 06:05:21;;;;;;;9.68;6.47;;;;;;;4.24;100.00;100998.75;5195400;28;20113;-71
2022/01/07 06:07:52;;;;;;;10.02;6.20;;;;;;;4.26;100.00;101000.34;5212365;28;20021;-71
2022/01/07 06:10:24;;;;;;;10.85;6.38;;;;;;;4.21;100.00;100996.38;5212952;28;20513;-71
2022/01/07 06:12:55;;;;;;;9.77;6.15;;;;;;;4.25;100.00;101001.28;5213096;28;20205;-71
2022/01/07 06:15:26;;;;;;;11.82;6.13;;;;;;;4.31;100.00;100997.50;5212994;28;20092;-71
2022/01/07 06:17:59;;;;;;;8.95;5.50;;;;;;;4.36;100.00;101008.47;5214193;28;20022;-71
2022/01/07 06:20:31;;;;;;;11.70;6.65;;;;;;;4.34;100.00;101005.13;5212652;28;20029;-71
2022/01/07 06:23:02;;;;;;;11.77;5.57;;;;;;;4.37;100.00;101007.53;5212255;28;20034;-71
2022/01/07 06:25:34;;;;;;;12.25;6.70;;;;;;;4.42;100.00;101010.69;5213091;28;20025;-71
2022/01/07 06:28:05;;;;;;;12.32;6.30;;;;;;;4.43;100.00;101012.38;5209443;28;20048;-71
2022/01/07 06:30:37;;;;;;;10.55;6.22;;;;;;;4.31;100.00;100993.16;5212487;28;20030;-71
2022/01/07 06:33:08;;;;;;;10.55;6.18;;;;;;;4.44;100.00;101008.88;5212400;28;20030;-71
2022/01/07 06:35:40;;;;;;;13.23;6.25;;;;;;;4.49;100.00;100999.06;5212371;28;20057;-71
2022/01/07 06:38:11;;;;;;;11.77;6.22;;;;;;;4.47;100.00;101002.66;5212713;28;20029;-71
2022/01/07 06:40:42;;;;;;;10.18;6.70;;;;;;;4.50;100.00;101003.31;5213498;28;20018;-71
2022/01/07 06:43:14;;;;;;;10.52;6.22;;;;;;;4.51;100.00;101010.19;5211174;28;20022;-71
2022/01/07 06:45:45;;;;;;;12.68;6.88;;;;;;;4.56;100.00;101017.72;5210450;28;20061;-71
2022/01/07 06:48:18;;;;;;;12.45;6.35;;;;;;;4.56;100.00;101009.94;5213180;28;20148;-71
2022/01/07 06:50:49;;;;;;;;;;;;;;;4.87;100.00;101004.63;5212134;28;20018;-71
2022/01/07 06:53:21;;;;;;;13.52;6.45;;;;;;;4.55;100.00;100993.53;5211828;28;19971;-71
2022/01/07 06:55:52;;;;;;;12.98;7.03;;;;;;;4.60;100.00;101006.22;5210293;28;20033;-70
2022/01/07 06:58:23;;;;;;;11.98;6.80;;;;;;;4.56;100.00;101007.34;5209967;28;20073;-69
2022/01/07 07:00:55;;;;;;;14.15;8.13;;;;;;;4.63;100.00;101003.47;5210347;28;20014;-70
2022/01/07 07:03:26;;;;;;;10.80;7.10;;;;;;;4.62;100.00;100997.44;5210037;28;20044;-69
2022/01/07 07:05:57;;;;;;;12.75;7.20;;;;;;;4.55;100.00;101003.06;5210598;28;20022;-70
2022/01/07 07:08:29;;;;;;;10.27;7.05;;;;;;;4.66;100.00;101000.69;5210885;28;20048;-70
2022/01/07 07:11:00;;;;;;;11.35;6.65;;;;;;;4.67;100.00;101006.72;5211209;28;20022;-70
2022/01/07 07:13:31;;;;;;;12.43;7.32;;;;;;;4.67;100.00;101012.75;5212153;28;20022;-70
2022/01/07 07:16:03;;;;;;;12.30;8.00;;;;;;;4.62;100.00;101015.63;5211230;28;20036;-70
2022/01/07 07:18:34;;;;;;;14.68;7.90;;;;;;;4.69;100.00;101002.28;5207389;28;20094;-70
2022/01/07 07:21:05;;;;;;;14.18;7.05;;;;;;;4.72;100.00;101012.47;5208575;28;20204;-69
2022/01/07 07:23:37;;;;;;;15.20;7.45;;;;;;;4.77;100.00;101008.72;5209161;28;20041;-71
2022/01/07 07:26:08;;;;;;;9.85;7.22;;;;;;;4.72;100.00;100999.50;5209520;28;20483;-71
2022/01/07 07:28:40;;;;;;;14.00;7.45;;;;;;;4.79;100.00;101003.41;5211429;28;20026;-70
2022/01/07 07:31:14;;;;;;;13.90;7.75;;;;;;;4.79;100.00;101004.25;5210247;28;20133;-70
2022/01/07 07:36:31;;;;;;;12.35;7.53;;;;;;;4.84;100.00;101011.75;5210325;28;20034;-71
2022/01/07 07:39:06;;;;;;;11.27;7.78;;;;;;;4.85;100.00;101003.06;5209346;28;20553;-71
2022/01/07 07:41:39;;;;;;;14.02;7.28;;;;;;;4.89;100.00;101009.75;5208590;28;20033;-70
2022/01/07 07:44:11;;;;;;;14.90;6.80;;;;;;;4.91;100.00;101007.06;5186072;28;20117;-70
2022/01/07 07:46:42;;;;;;;12.63;7.57;;;;;;;4.95;100.00;100999.00;5208195;28;20184;-71
2022/01/07 07:49:15;;;;;;;14.90;7.95;;;;;;;4.94;100.00;100991.31;5208844;28;20026;-71
2022/01/07 07:51:46;;;;;;;10.23;7.03;;;;;;;4.93;100.00;100993.06;5188461;28;20018;-71
2022/01/07 07:54:18;;;;;;;15.98;7.72;;;;;;;4.95;100.00;100992.97;5207652;28;20052;-71
2022/01/07 07:56:49;;;;;;;13.15;7.43;;;;;;;4.95;100.00;101004.19;5208483;28;20080;-70
2022/01/07 07:59:22;;;;;;;12.30;7.28;;;;;;;4.92;100.00;101001.75;5210730;28;20152;-71
2022/01/07 08:01:53;;;;;;;16.33;7.50;;;;;;;5.03;100.00;101014.13;5210970;28;20022;-71
2022/01/07 08:04:25;;;;;;;14.50;8.00;;;;;;;5.03;100.00;101012.34;5190892;28;20267;-70
2022/01/07 08:06:56;;;;;;;11.77;7.03;;;;;;;5.02;100.00;101010.69;5210088;28;20455;-71
2022/01/07 08:09:30;;;;;;;11.20;6.95;;;;;;;5.05;100.00;101005.31;5208707;28;20033;-71
2022/01/07 08:12:16;;;;;;;15.20;7.63;;;;;;;5.08;100.00;101001.72;5191457;28;20112;-71
2022/01/07 08:17:37;;;;;;;14.27;7.82;;;;;;;5.09;100.00;100996.41;5207675;28;20038;-71
2022/01/07 08:20:09;;;;;;;15.20;8.02;;;;;;;5.02;100.00;100984.72;5208628;28;20034;-72
2022/01/07 08:22:40;;;;;;;15.02;7.75;;;;;;;5.09;100.00;100988.63;5210635;28;20350;-71
2022/01/07 08:25:11;;;;;;;14.82;6.97;;;;;;;5.09;100.00;100974.81;5209866;28;20034;-70
2022/01/07 08:27:43;;;;;;;16.90;8.55;;;;;;;5.06;100.00;100962.00;5210589;28;20526;-70
2022/01/07 08:30:21;;;;;;;13.07;7.85;;;;;;;5.04;100.00;100967.31;5209138;28;20501;-71
2022/01/07 08:35:42;;;;;;;13.10;7.35;;;;;;;5.15;100.00;100983.97;5209129;28;20038;-71
2022/01/07 08:38:13;;;;;;;13.75;7.20;;;;;;;5.09;100.00;100977.41;5208928;28;21152;-72
2022/01/07 08:40:46;;;;;;;13.13;7.10;;;;;;;5.12;100.00;100977.22;5206085;28;20029;-70
2022/01/07 08:43:17;;;;;;;11.93;7.78;;;;;;;5.10;100.00;100977.31;5210692;28;20532;-71
2022/01/07 08:45:49;;;;;;;13.13;7.05;;;;;;;5.16;100.00;100991.69;5190385;28;20041;-71
2022/01/07 08:48:20;;;;;;;12.48;7.07;;;;;;;5.16;100.00;100983.09;5208339;28;20022;-70
2022/01/07 08:50:51;;;;;;;9.52;6.95;;;;;;;5.21;100.00;100981.88;5209896;28;20029;-71
2022/01/07 08:53:24;;;;;;;14.05;7.13;;;;;;;5.23;100.00;100995.59;5207823;28;20058;-72
2022/01/07 08:55:55;;;;;;;12.40;7.20;;;;;;;5.23;100.00;101005.16;5207229;28;20025;-71
2022/01/07 08:58:27;;;;;;;14.25;7.55;;;;;;;5.23;100.00;100997.38;5208187;28;20381;-71
2022/01/07 09:00:58;;;;;;;13.20;7.05;;;;;;;5.20;100.00;101011.38;5212996;28;20017;-71
2022/01/07 09:03:30;;;;;;;10.57;7.32;;;;;;;5.24;100.00;101004.22;5212029;28;20037;-71
2022/01/07 09:06:01;;;;;;;13.95;7.40;;;;;;;5.23;100.00;100999.97;5211438;28;20024;-70
2022/01/07 09:08:33;;;;;;;14.73;6.88;;;;;;;5.26;100.00;100991.97;5213359;28;20025;-71
2022/01/07 09:11:04;;;;;;;15.70;7.82;;;;;;;5.24;100.00;100996.44;5212179;28;20030;-71
2022/01/07 09:13:36;;;;;;;10.73;6.32;;;;;;;5.26;100.00;100998.00;5212692;28;20025;-70
2022/01/07 09:16:07;;;;;;;14.77;7.25;;;;;;;5.28;100.00;100996.16;5209211;28;20022;-70
2022/01/07 09:18:38;;;;;;;14.25;7.20;;;;;;;5.27;100.00;100997.09;5212436;28;20045;-71
2022/01/07 09:21:10;;;;;;;12.02;6.65;;;;;;;5.32;100.00;100994.22;5213046;28;20026;-71
2022/01/07 09:23:41;;;;;;;13.85;7.25;;;;;;;5.31;100.00;100995.16;5210754;28;20029;-71
2022/01/07 09:26:13;;;;;;;12.88;7.65;;;;;;;5.31;100.00;100988.19;5202052;28;20510;-70
2022/01/07 09:28:44;;;;;;;19.40;6.72;;;;;;;5.33;100.00;100995.88;5208007;28;20121;-70
2022/01/07 09:31:17;;;;;;;11.98;6.60;;;;;;;5.35;100.00;100991.44;5211141;28;20026;-71
2022/01/07 09:33:48;;;;;;;10.30;6.53;;;;;;;5.27;100.00;100971.13;5210914;28;20038;-71
2022/01/07 09:36:19;;;;;;;12.43;6.82;;;;;;;5.42;100.00;100984.94;5193115;28;20157;-71
2022/01/07 09:38:51;;;;;;;14.50;6.50;;;;;;;5.52;100.00;100990.38;5206401;28;20153;-71
2022/01/07 09:41:22;;;;;;;11.88;6.90;;;;;;;5.51;100.00;100976.56;5209782;28;20045;-71
2022/01/07 09:43:53;;;;;;;12.02;6.50;;;;;;;5.55;100.00;100985.84;5211344;28;20022;-71
2022/01/07 09:46:25;;;;;;;10.95;5.93;;;;;;;5.58;100.00;100987.44;5192959;28;20062;-71
2022/01/07 09:48:56;;;;;;;13.38;6.15;;;;;;;5.58;100.00;100977.84;5210124;28;20475;-71
2022/01/07 09:51:28;;;;;;;10.10;6.25;;;;;;;5.58;100.00;100980.47;5208609;28;20030;-72
2022/01/07 09:54:03;;;;;;;12.57;5.90;;;;;;;5.81;100.00;100986.00;5212227;28;20499;-72
2022/01/07 09:56:36;;;;;;;14.30;6.07;;;;;;;5.68;100.00;100974.69;5212947;28;20502;-71
2022/01/07 09:59:07;;;;;;;10.70;5.95;;;;;;;5.73;100.00;100980.44;5211186;28;20041;-71
2022/01/07 10:02:00;;;;;;;8.73;5.35;;;;;;;5.90;100.00;100975.00;5211720;28;20387;-71
2022/01/07 10:04:34;;;;;;;8.68;4.72;;;;;;;5.75;100.00;100982.00;5211554;28;20092;-71
2022/01/07 10:07:23;;;;;;;8.75;5.40;;;;;;;5.94;100.00;100976.50;5212278;28;20036;-72
2022/01/07 10:10:07;;;;;;;8.88;5.22;;;;;;;5.88;100.00;100978.66;5212448;28;20026;-72
2022/01/07 10:12:56;;;;;;;13.13;5.45;;;;;;;5.99;100.00;100971.88;5211503;28;20034;-72
2022/01/07 10:15:29;;;;;;;10.43;5.28;;;;;;;5.95;100.00;100964.38;5210532;28;20040;-70
2022/01/07 10:18:06;;;;;;;10.13;5.78;;;;;;;5.87;100.00;100975.19;5211070;28;20083;-70
2022/01/07 10:20:40;;;;;;;9.38;4.97;;;;;;;5.86;100.00;100971.75;5212087;28;20112;-70
2022/01/07 10:23:23;;;;;;;6.80;4.60;;;;;;;6.00;100.00;100978.72;5205109;28;20022;-70
2022/01/07 10:25:56;;;;;;;10.38;5.00;;;;;;;5.96;100.00;100977.25;5209074;28;20037;-70
2022/01/07 10:28:30;;;;;;;9.95;4.50;;;;;;;5.99;100.00;100965.84;5211111;28;20041;-70
2022/01/07 10:31:02;;;;;;;9.45;4.35;;;;;;;5.97;100.00;100959.88;5210991;28;20080;-70
2022/01/07 10:33:41;;;;;;;9.55;4.65;;;;;;;6.13;100.00;100957.13;5211944;28;20018;-70
2022/01/07 10:36:12;;;;;;;8.27;4.38;;;;;;;6.11;100.00;100970.25;5210276;28;20069;-70
2022/01/07 10:39:00;;;;;;;7.50;4.73;;;;;;;6.27;100.00;100957.91;5210259;28;20069;-70
2022/01/07 10:41:31;;;;;;;10.23;5.07;;;;;;;6.16;100.00;100951.75;5210835;28;20646;-70
2022/01/07 10:44:04;;;;;;;10.48;4.82;;;;;;;6.26;100.00;100952.81;5210015;28;20021;-71
2022/01/07 10:46:35;;;;;;;10.07;4.20;;;;;;;6.29;100.00;100943.06;5386857;23;20034;-73
2022/01/07 10:49:07;;;;;;;10.15;4.15;;;;;;;6.34;100.00;100946.19;5200732;28;20403;-73
2022/01/07 10:51:52;;;;;;;6.72;3.80;;;;;;;6.53;100.00;100943.19;5205698;28;20026;-73
2022/01/07 10:54:24;;;;;;;11.07;4.68;;;;;;;6.42;100.00;100950.88;5209922;28;20664;-73
2022/01/07 10:56:57;;;;;;;9.20;4.40;;;;;;;6.38;100.00;100946.81;5204130;28;20121;-73
2022/01/07 10:59:28;;;;;;;12.45;4.15;;;;;;;6.45;100.00;100937.66;5187756;28;20038;-73
2022/01/07 11:01:59;;;;;;;12.95;4.70;;;;;;;6.61;100.00;100936.66;5176428;28;20376;-73
2022/01/07 11:04:32;;;;;;;8.45;3.85;;;;;;;6.68;100.00;100940.53;5197297;28;20551;-73
2022/01/07 11:07:12;;;;;;;7.68;3.83;;;;;;;6.80;100.00;100937.09;5201647;28;20032;-73
2022/01/07 11:09:43;;;;;;;8.57;4.30;;;;;;;6.88;100.00;100940.00;5199362;28;20029;-72
2022/01/07 11:12:16;;;;;;;10.07;4.00;;;;;;;7.02;100.00;100936.47;5199701;28;20038;-73
2022/01/07 11:14:47;;;;;;;13.40;3.90;;;;;;;7.04;100.00;100940.63;5200062;28;20041;-72
2022/01/07 11:17:21;;;;;;;8.88;3.50;;;;;;;6.92;100.00;100936.25;5198691;28;20460;-73
2022/01/07 11:20:02;;;;;;;10.43;3.75;;;;;;;6.97;100.00;100944.59;5198515;28;20022;-73
2022/01/07 11:22:38;;;;;;;11.90;4.60;;;;;;;6.81;100.00;100957.81;5197883;28;20376;-73
2022/01/07 11:25:10;;;;;;;10.38;3.30;;;;;;;6.81;100.00;100947.38;5198011;28;20390;-73
2022/01/07 11:27:52;;;;;;;6.43;3.42;;;;;;;6.83;100.00;100942.91;5197002;28;20542;-73
2022/01/07 11:30:26;;;;;;;8.35;3.70;;;;;;;6.82;100.00;100948.25;5201599;28;20503;-73
2022/01/07 11:33:00;;;;;;;12.48;4.13;;;;;;;6.87;100.00;100947.94;5198596;28;20040;-73
2022/01/07 11:35:31;;;;;;;7.63;3.80;;;;;;;6.82;100.00;100946.47;5198318;28;20036;-73
2022/01/07 11:38:02;;;;;;;7.77;3.40;;;;;;;6.85;100.00;100947.19;5202003;28;20384;-73
2022/01/07 11:40:39;;;;;;;8.02;3.53;;;;;;;6.97;100.00;100943.75;5202537;28;20022;-73
2022/01/07 11:43:13;;;;;;;9.38;3.83;;;;;;;6.86;100.00;100939.28;5198189;28;20033;-73
2022/01/07 11:45:45;;;;;;;10.35;3.20;;;;;;;6.82;100.00;100938.66;5202571;28;20037;-73
2022/01/07 11:48:26;;;;;;;7.13;3.20;;;;;;;6.82;100.00;100937.81;5202594;28;20526;-73
2022/01/07 11:51:00;;;;;;;7.63;2.80;;;;;;;6.83;100.00;100942.09;5185055;28;20035;-73
2022/01/07 11:53:38;;;;;;;9.00;2.72;;;;;;;6.90;100.00;100937.31;5201389;28;20306;-73